Time;durP1;ratioP1;P1;durP2;ratioP2;P2;SDS_P1;SDS_P2;PMS_P1;PMS_P2;Temp;Humidity;BMP_temperature;BMP_pressure;BME280_temperature;BME280_humidity;BME280_pressure;Samples;Min_cycle;Max_cycle;Signal;HPM_P1;HPM_P2
2023/06/25 00:01:09;;;;;;;39.15;18.30;;;;;;;19.53;79.82;102205.03;6111305;19;20059;-74
2023/06/25 00:03:14;;;;;;;37.17;17.77;;;;;;;19.53;78.69;102207.72;6112768;19;19999;-74
2023/06/25 00:05:20;;;;;;;37.60;17.52;;;;;;;19.54;79.69;102205.94;6108989;19;20398;-75
2023/06/25 00:07:25;;;;;;;34.38;17.08;;;;;;;19.53;79.40;102198.84;6111255;19;20019;-71
2023/06/25 00:09:33;;;;;;;35.92;16.80;;;;;;;19.50;79.71;102199.03;6110446;19;20482;-71
2023/06/25 00:11:38;;;;;;;34.85;15.32;;;;;;;19.50;79.77;102188.38;6107913;19;20354;-73
2023/06/25 00:13:46;;;;;;;39.45;19.02;;;;;;;19.51;80.32;102188.31;6110039;19;20451;-72
2023/06/25 00:15:53;;;;;;;37.90;17.10;;;;;;;19.48;80.63;102180.47;6110079;19;20007;-73
2023/06/25 00:17:59;;;;;;;35.22;17.13;;;;;;;19.49;80.49;102184.00;6107725;19;20511;-75
2023/06/25 00:20:04;;;;;;;36.10;17.30;;;;;;;19.46;81.06;102181.50;6097457;19;20090;-74
2023/06/25 00:22:11;;;;;;;37.13;17.05;;;;;;;19.47;81.20;102177.88;6113597;19;20078;-75
2023/06/25 00:24:18;;;;;;;33.30;16.73;;;;;;;19.45;81.89;102179.78;6116603;19;20037;-77
2023/06/25 00:26:23;;;;;;;32.33;15.63;;;;;;;19.47;82.14;102180.56;6114652;19;20014;-74
2023/06/25 00:28:30;;;;;;;33.20;18.08;;;;;;;19.47;81.45;102177.88;6114808;19;20386;-74
2023/06/25 00:30:35;;;;;;;34.97;16.90;;;;;;;19.46;81.78;102171.69;6116306;19;20034;-75
2023/06/25 00:32:45;;;;;;;31.08;17.00;;;;;;;19.49;81.85;102165.34;6118319;19;20487;-75
2023/06/25 00:34:50;;;;;;;32.25;15.73;;;;;;;19.51;81.98;102168.78;6115287;19;20015;-75
2023/06/25 00:36:55;;;;;;;33.60;17.25;;;;;;;19.51;82.72;102163.44;6117415;19;20467;-75
2023/06/25 00:39:03;;;;;;;28.23;15.70;;;;;;;19.54;82.20;102163.28;6118095;19;20010;-75
2023/06/25 00:41:09;;;;;;;31.05;16.13;;;;;;;19.52;82.65;102165.16;6118382;19;20018;-76
2023/06/25 00:43:16;;;;;;;31.05;15.73;;;;;;;19.54;82.69;102163.28;6120181;19;20027;-74
2023/06/25 00:45:24;;;;;;;29.65;15.75;;;;;;;19.54;82.97;102163.28;6122226;19;20029;-75
2023/06/25 00:47:32;;;;;;;30.63;15.20;;;;;;;19.51;82.86;102150.97;6122519;19;19998;-75
2023/06/25 00:49:40;;;;;;;30.45;17.08;;;;;;;19.50;83.42;102151.03;6120858;19;20018;-76
2023/06/25 00:51:47;;;;;;;22.48;13.15;;;;;;;19.47;82.75;102140.56;6117942;19;20418;-74
2023/06/25 00:53:52;;;;;;;26.10;13.73;;;;;;;19.45;83.14;102142.44;6117622;19;20022;-75
2023/06/25 00:55:58;;;;;;;23.70;14.35;;;;;;;19.41;83.64;102144.44;6116488;19;20357;-74
2023/06/25 00:58:05;;;;;;;26.33;14.63;;;;;;;19.40;83.65;102137.38;6117969;19;20361;-75
2023/06/25 01:00:14;;;;;;;27.58;13.98;;;;;;;19.37;83.88;102134.88;6118339;19;20082;-75
2023/06/25 01:02:29;;;;;;;22.33;11.80;;;;;;;19.35;83.08;102130.59;6117613;19;20018;-76
2023/06/25 01:04:43;;;;;;;23.92;12.98;;;;;;;19.32;83.67;102130.78;6116785;19;20014;-74
2023/06/25 01:06:51;;;;;;;23.10;12.80;;;;;;;19.25;84.68;102133.78;6114458;19;20508;-75
2023/06/25 01:08:56;;;;;;;25.02;14.20;;;;;;;19.28;85.12;102136.28;6114921;19;20017;-75
2023/06/25 01:11:05;;;;;;;21.80;12.18;;;;;;;19.25;84.56;102130.28;6115829;19;20010;-75
2023/06/25 01:13:10;;;;;;;23.83;12.32;;;;;;;19.25;84.67;102120.47;6115623;19;20043;-75
2023/06/25 01:15:15;;;;;;;23.20;12.65;;;;;;;19.24;84.35;102121.41;6114520;19;20042;-76
2023/06/25 01:17:21;;;;;;;19.75;11.45;;;;;;;19.28;86.29;102120.28;6115702;19;20463;-74
2023/06/25 01:19:29;;;;;;;20.65;11.98;;;;;;;19.28;86.02;102120.28;6114870;19;20036;-75
2023/06/25 01:21:39;;;;;;;21.48;10.77;;;;;;;19.29;85.71;102121.13;6114680;19;20006;-74
2023/06/25 01:23:48;;;;;;;21.83;11.48;;;;;;;19.25;86.05;102115.13;6116800;19;20013;-72
2023/06/25 01:25:53;;;;;;;20.52;11.65;;;;;;;19.24;86.32;102115.22;6115296;19;20078;-72
2023/06/25 01:27:59;;;;;;;21.13;12.02;;;;;;;19.23;86.77;102113.50;6113207;19;20006;-74
2023/06/25 01:30:06;;;;;;;21.30;11.90;;;;;;;19.19;86.64;102112.78;6114292;19;20018;-72
2023/06/25 01:32:14;;;;;;;20.55;12.10;;;;;;;19.24;86.95;102112.53;6092379;19;20011;-71
2023/06/25 01:34:22;;;;;;;19.65;11.65;;;;;;;19.24;86.96;102107.22;6115140;19;20483;-72
2023/06/25 01:36:29;;;;;;;21.88;11.70;;;;;;;19.20;86.84;102101.22;6113538;19;20022;-71
2023/06/25 01:38:34;;;;;;;22.13;11.68;;;;;;;19.17;87.12;102095.19;6115093;19;20007;-72
2023/06/25 01:40:41;;;;;;;20.55;11.50;;;;;;;19.14;86.77;102090.91;6113944;19;20070;-71
2023/06/25 01:42:48;;;;;;;21.73;11.82;;;;;;;19.11;86.82;102090.22;6113918;19;20455;-71
2023/06/25 01:44:53;;;;;;;22.23;12.13;;;;;;;19.07;87.34;102090.38;6112883;19;20026;-72
2023/06/25 01:46:59;;;;;;;23.35;12.32;;;;;;;19.05;87.12;102086.09;6115278;19;20007;-72
2023/06/25 01:49:04;;;;;;;18.60;10.07;;;;;;;19.02;87.20;102081.78;6113119;19;20014;-71
2023/06/25 01:51:09;;;;;;;19.77;11.07;;;;;;;19.01;87.23;102082.75;6114316;19;20018;-72
2023/06/25 01:53:14;;;;;;;23.13;12.00;;;;;;;18.99;87.26;102079.31;6112826;19;20003;-73
2023/06/25 01:55:19;;;;;;;23.23;13.30;;;;;;;18.96;87.50;102076.81;6114812;19;20017;-73
2023/06/25 01:57:29;;;;;;;25.27;14.27;;;;;;;18.94;88.03;102072.53;6114352;19;20425;-71
2023/06/25 01:59:36;;;;;;;23.13;12.73;;;;;;;18.89;87.89;102070.09;6113559;19;20010;-76
2023/06/25 02:01:43;;;;;;;20.23;11.18;;;;;;;18.85;86.77;102073.88;6112824;19;20490;-75
2023/06/25 02:03:49;;;;;;;22.88;12.68;;;;;;;18.83;87.42;102065.13;6112844;19;20348;-74
2023/06/25 02:05:55;;;;;;;25.40;13.38;;;;;;;18.83;88.19;102060.66;6112084;19;20051;-75
2023/06/25 02:08:03;;;;;;;22.17;11.68;;;;;;;18.81;87.97;102061.69;6110566;19;20028;-74
2023/06/25 02:10:09;;;;;;;25.70;13.90;;;;;;;18.79;88.56;102069.75;6113534;19;20034;-76
2023/06/25 02:12:14;;;;;;;23.38;12.15;;;;;;;18.78;89.31;102056.53;6113251;19;20032;-71
2023/06/25 02:14:21;;;;;;;24.13;12.25;;;;;;;18.76;88.38;102053.94;6111916;19;20011;-72
2023/06/25 02:16:29;;;;;;;23.20;13.20;;;;;;;18.77;89.49;102052.13;6109653;19;20388;-72
2023/06/25 02:18:35;;;;;;;27.05;13.40;;;;;;;18.81;89.98;102051.88;6113691;19;20487;-72
2023/06/25 02:20:40;;;;;;;29.73;14.68;;;;;;;18.79;90.19;102045.78;6110905;19;20348;-73
2023/06/25 02:22:45;;;;;;;28.80;14.30;;;;;;;18.79;89.62;102040.44;6111937;19;20381;-72
2023/06/25 02:24:50;;;;;;;28.10;14.55;;;;;;;18.77;89.48;102045.03;6113875;19;20547;-72
2023/06/25 02:26:55;;;;;;;27.10;13.35;;;;;;;18.75;89.34;102038.94;6113058;19;20002;-73
2023/06/25 02:29:04;;;;;;;25.98;13.25;;;;;;;18.73;89.77;102051.44;6111958;19;20015;-72
2023/06/25 02:31:15;;;;;;;28.02;14.05;;;;;;;18.69;89.75;102043.69;6113120;19;20024;-72
2023/06/25 02:33:25;;;;;;;31.25;15.32;;;;;;;18.68;89.90;102045.50;6111539;19;20073;-71
2023/06/25 02:35:32;;;;;;;27.70;14.85;;;;;;;18.67;90.95;102038.47;6110898;19;20139;-73
2023/06/25 02:37:38;;;;;;;30.13;15.48;;;;;;;18.65;90.69;102033.22;6111826;19;20455;-72
2023/06/25 02:39:47;;;;;;;31.75;16.10;;;;;;;18.65;90.16;102030.53;6111836;19;20031;-73
2023/06/25 02:41:54;;;;;;;29.25;15.10;;;;;;;18.63;90.74;102031.56;6110826;19;20022;-73
2023/06/25 02:44:02;;;;;;;32.17;15.95;;;;;;;18.63;90.69;102026.25;6107665;19;20015;-73
2023/06/25 02:46:07;;;;;;;29.70;15.50;;;;;;;18.63;91.53;102029.75;6113004;19;20070;-72
2023/06/25 02:48:15;;;;;;;29.77;14.75;;;;;;;18.61;91.71;102026.31;6112104;19;20029;-73
2023/06/25 02:50:24;;;;;;;30.85;15.82;;;;;;;18.61;91.25;102026.31;6111237;19;20015;-73
2023/06/25 02:52:29;;;;;;;27.73;14.52;;;;;;;18.56;91.04;102020.44;6109620;19;20038;-72
2023/06/25 02:54:34;;;;;;;25.27;13.55;;;;;;;18.52;90.60;102026.84;6110841;19;20046;-71
2023/06/25 02:56:39;;;;;;;30.27;14.55;;;;;;;18.51;90.94;102026.91;6112893;19;20007;-74
2023/06/25 02:58:45;;;;;;;29.58;15.02;;;;;;;18.47;90.59;102025.38;6111636;19;20019;-72
2023/06/25 03:00:51;;;;;;;29.30;15.75;;;;;;;18.43;91.40;102028.22;6111910;19;20350;-71
2023/06/25 03:02:56;;;;;;;31.10;16.30;;;;;;;18.39;92.32;102026.66;6112308;19;20007;-72
2023/06/25 03:05:11;;;;;;;29.13;14.82;;;;;;;18.37;91.22;102033.84;6112945;19;20038;-71
2023/06/25 03:07:17;;;;;;;27.08;13.88;;;;;;;18.33;90.66;102029.66;6112424;19;20027;-71
2023/06/25 03:09:22;;;;;;;27.95;14.32;;;;;;;18.29;90.32;102033.41;6110756;19;20019;-72
2023/06/25 03:11:29;;;;;;;26.80;13.90;;;;;;;18.26;92.19;102028.25;6111180;19;20014;-71
2023/06/25 03:13:34;;;;;;;33.67;15.68;;;;;;;18.26;91.95;102028.25;6109558;19;20017;-70
2023/06/25 03:15:43;;;;;;;31.77;16.13;;;;;;;18.23;92.25;102033.75;6111284;19;20050;-72
2023/06/25 03:17:49;;;;;;;29.17;14.63;;;;;;;18.25;92.78;102025.72;6109423;19;20059;-71
2023/06/25 03:19:55;;;;;;;34.97;16.73;;;;;;;18.28;92.67;102020.22;6111562;19;20356;-75
2023/06/25 03:22:05;;;;;;;33.78;15.55;;;;;;;18.31;92.75;102020.03;6107737;19;20010;-73
2023/06/25 03:24:11;;;;;;;33.53;16.02;;;;;;;18.32;92.88;102022.59;6111564;19;20086;-75
2023/06/25 03:26:16;;;;;;;37.20;18.42;;;;;;;18.29;92.38;102025.44;6111533;19;20022;-76
2023/06/25 03:28:21;;;;;;;40.58;19.25;;;;;;;18.31;92.97;102015.56;6104249;19;20026;-75
2023/06/25 03:30:31;;;;;;;32.22;16.73;;;;;;;18.30;92.86;102013.88;6110515;19;20046;-74
2023/06/25 03:32:36;;;;;;;34.33;15.85;;;;;;;18.27;93.27;102008.69;6112284;19;20346;-77
2023/06/25 03:34:43;;;;;;;39.95;18.27;;;;;;;18.25;92.57;102018.56;6112378;19;20080;-75
2023/06/25 03:36:48;;;;;;;36.13;18.95;;;;;;;18.24;93.18;102021.31;6110230;19;20062;-75
2023/06/25 03:38:59;;;;;;;37.70;19.23;;;;;;;18.26;92.88;102016.78;6112107;19;20077;-75
2023/06/25 03:41:04;;;;;;;35.30;15.95;;;;;;;18.26;93.23;102012.31;6113052;19;20007;-74
2023/06/25 03:43:09;;;;;;;38.47;19.23;;;;;;;18.27;93.37;102013.16;6109952;19;20015;-74
2023/06/25 03:45:15;;;;;;;38.50;20.45;;;;;;;18.26;93.77;102006.13;6112550;19;20021;-75
2023/06/25 03:47:21;;;;;;;34.40;18.38;;;;;;;18.26;93.21;102006.13;6112205;19;20033;-74
2023/06/25 03:49:29;;;;;;;39.88;19.35;;;;;;;18.22;93.33;102002.78;6113161;19;20016;-74
2023/06/25 03:51:34;;;;;;;39.30;18.38;;;;;;;18.23;93.12;102003.63;6111323;19;20368;-75
2023/06/25 03:53:41;;;;;;;36.97;17.65;;;;;;;18.23;93.00;102004.50;6112250;19;20003;-75
2023/06/25 03:55:49;;;;;;;38.17;18.63;;;;;;;18.24;92.94;102003.53;6116338;19;20050;-76
2023/06/25 03:57:54;;;;;;;35.08;19.17;;;;;;;18.20;93.08;102002.84;6116953;19;20535;-76
2023/06/25 03:59:59;;;;;;;40.05;19.98;;;;;;;18.19;93.14;102003.81;6115309;19;20026;-73
2023/06/25 04:02:04;;;;;;;37.85;18.67;;;;;;;18.24;93.51;101998.22;6119712;19;20006;-74
2023/06/25 04:04:10;;;;;;;35.00;18.15;;;;;;;18.24;93.53;102002.69;6119363;19;20043;-74
2023/06/25 04:06:15;;;;;;;37.95;19.13;;;;;;;18.25;93.88;101994.63;6118592;19;20111;-73
2023/06/25 04:08:20;;;;;;;37.03;18.67;;;;;;;18.25;93.28;101996.44;6116787;19;20052;-75
2023/06/25 04:10:25;;;;;;;36.42;18.08;;;;;;;18.29;93.15;101985.53;6121705;19;20018;-74
2023/06/25 04:12:34;;;;;;;40.92;20.38;;;;;;;18.28;93.54;101994.47;6120472;19;20018;-74
2023/06/25 04:14:39;;;;;;;45.50;21.92;;;;;;;18.32;93.50;101993.31;6118517;19;20018;-75
2023/06/25 04:16:45;;;;;;;39.92;19.52;;;;;;;18.32;93.33;101990.66;6121411;19;20012;-76
2023/06/25 04:18:50;;;;;;;45.15;21.35;;;;;;;18.38;93.29;102001.00;6120356;19;20053;-75
2023/06/25 04:20:55;;;;;;;44.03;21.13;;;;;;;18.41;92.85;101998.16;6118523;19;20010;-75
2023/06/25 04:23:03;;;;;;;37.30;19.10;;;;;;;18.45;92.58;101995.31;6119380;19;20011;-75
2023/06/25 04:25:09;;;;;;;41.35;20.55;;;;;;;18.54;92.31;102000.16;6115632;19;20055;-72
2023/06/25 04:27:15;;;;;;;42.17;21.42;;;;;;;18.51;92.00;102001.19;6118494;19;20030;-72
2023/06/25 04:29:24;;;;;;;44.88;23.05;;;;;;;18.53;92.07;102001.94;6119357;19;20065;-73
2023/06/25 04:31:32;;;;;;;41.28;22.55;;;;;;;18.61;91.93;101997.03;6117079;19;20082;-72
2023/06/25 04:33:41;;;;;;;44.08;21.95;;;;;;;18.67;91.29;101995.88;6117946;19;20003;-70
2023/06/25 04:35:46;;;;;;;43.78;21.67;;;;;;;18.72;91.14;102004.44;6118476;19;20015;-71
2023/06/25 04:37:51;;;;;;;40.85;20.48;;;;;;;18.79;90.94;102000.50;6119117;19;20042;-71
2023/06/25 04:39:56;;;;;;;42.10;21.15;;;;;;;18.89;90.03;101998.19;6115301;19;20027;-71
2023/06/25 04:42:03;;;;;;;46.03;21.50;;;;;;;18.95;89.76;101994.31;6117143;19;20470;-72
2023/06/25 04:44:09;;;;;;;39.10;20.83;;;;;;;19.06;88.97;101990.09;6115973;19;20466;-71
2023/06/25 04:46:16;;;;;;;44.47;21.05;;;;;;;19.16;88.02;101994.88;6118543;19;20483;-73
2023/06/25 04:48:21;;;;;;;46.15;22.25;;;;;;;19.25;87.35;101989.88;6115600;19;20014;-71
2023/06/25 04:50:28;;;;;;;34.55;20.00;;;;;;;19.41;86.70;101980.97;6115154;19;20010;-75
2023/06/25 04:52:33;;;;;;;40.33;21.50;;;;;;;19.52;86.41;101983.84;6116554;19;20015;-75
2023/06/25 04:54:38;;;;;;;34.55;19.27;;;;;;;19.68;85.95;101974.00;6115670;19;20061;-75
2023/06/25 04:56:44;;;;;;;40.75;21.33;;;;;;;19.85;85.55;101975.66;6114140;19;20082;-75
2023/06/25 04:58:49;;;;;;;36.05;19.80;;;;;;;20.05;84.45;101977.06;6116344;19;20038;-75
2023/06/25 05:00:54;;;;;;;38.50;19.50;;;;;;;20.24;83.73;101975.91;6115447;19;20018;-75
2023/06/25 05:03:04;;;;;;;36.15;21.33;;;;;;;20.31;82.46;101977.25;6114059;19;20010;-76
2023/06/25 05:05:10;;;;;;;43.28;21.27;;;;;;;20.51;82.07;101979.50;6114508;19;20433;-75
2023/06/25 05:07:15;;;;;;;39.95;18.17;;;;;;;20.74;80.91;101980.69;6112293;19;20022;-74
2023/06/25 05:09:21;;;;;;;36.45;19.85;;;;;;;20.97;79.98;101978.34;6113853;19;20057;-74
2023/06/25 05:11:26;;;;;;;33.17;17.15;;;;;;;21.15;79.09;101978.94;6113346;19;20512;-74
2023/06/25 05:13:35;;;;;;;36.38;20.42;;;;;;;21.05;78.57;101989.38;6114378;19;20019;-74
2023/06/25 05:15:41;;;;;;;36.13;18.48;;;;;;;21.20;77.49;101987.50;6115381;19;20133;-74
2023/06/25 05:17:46;;;;;;;37.20;18.70;;;;;;;21.45;77.47;101986.72;6114204;19;20436;-74
2023/06/25 05:19:54;;;;;;;36.90;19.20;;;;;;;21.69;76.18;101993.03;6113029;19;20356;-74
2023/06/25 05:21:59;;;;;;;34.30;18.38;;;;;;;21.85;75.76;101995.53;6110560;19;20007;-73
2023/06/25 05:24:05;;;;;;;28.70;16.45;;;;;;;22.16;74.81;101987.16;6113529;19;20006;-74
2023/06/25 05:26:10;;;;;;;35.80;18.60;;;;;;;22.18;73.15;101987.91;6114415;19;20042;-74
2023/06/25 05:28:16;;;;;;;37.70;17.95;;;;;;;22.09;73.20;101990.28;6110795;19;20049;-75
2023/06/25 05:30:21;;;;;;;34.17;17.55;;;;;;;22.54;73.52;101996.00;6113742;19;20070;-75
2023/06/25 05:32:26;;;;;;;32.72;17.05;;;;;;;22.90;71.09;101979.97;6112441;19;20002;-74
2023/06/25 05:34:34;;;;;;;33.00;17.10;;;;;;;23.23;69.84;101985.53;6112708;19;20015;-74
2023/06/25 05:36:42;;;;;;;30.38;18.02;;;;;;;23.12;68.17;101980.13;6113719;19;20042;-74
2023/06/25 05:38:48;;;;;;;32.60;17.30;;;;;;;23.23;67.96;101982.84;6113220;19;20050;-74
2023/06/25 05:40:55;;;;;;;29.70;15.88;;;;;;;23.49;67.13;101984.53;6113860;19;19998;-75
2023/06/25 05:43:02;;;;;;;26.85;15.00;;;;;;;23.63;66.66;101990.50;6114614;19;20321;-74
2023/06/25 05:45:10;;;;;;;32.03;16.42;;;;;;;23.60;66.10;101989.91;6111871;19;20011;-74
2023/06/25 05:47:15;;;;;;;29.10;15.68;;;;;;;23.91;65.44;101982.16;6113673;19;20010;-75
2023/06/25 05:49:23;;;;;;;31.65;16.60;;;;;;;24.09;64.26;101988.75;6114546;19;20047;-74
2023/06/25 05:51:29;;;;;;;28.55;15.75;;;;;;;24.14;63.79;101985.69;6111105;19;20479;-74
2023/06/25 05:53:45;;;;;;;27.75;14.80;;;;;;;24.38;63.34;101981.06;6114080;19;20014;-74
2023/06/25 05:55:51;;;;;;;28.80;15.77;;;;;;;24.54;62.03;101983.38;6114273;19;20046;-75
2023/06/25 05:57:56;;;;;;;28.85;15.48;;;;;;;24.53;61.35;101985.19;6112573;19;20023;-72
2023/06/25 06:00:04;;;;;;;26.83;14.50;;;;;;;24.81;60.72;101985.63;6111309;19;20019;-71
2023/06/25 06:02:09;;;;;;;26.58;15.18;;;;;;;24.81;59.36;101980.25;6114687;19;20436;-72
2023/06/25 06:04:14;;;;;;;26.63;13.82;;;;;;;25.03;60.75;101978.44;6112789;19;20041;-72
2023/06/25 06:06:25;;;;;;;24.08;14.20;;;;;;;25.37;59.25;101973.78;6113237;19;20022;-72
2023/06/25 06:08:33;;;;;;;26.17;13.60;;;;;;;25.47;56.79;101971.16;6112572;19;20015;-75
2023/06/25 06:10:42;;;;;;;27.50;14.40;;;;;;;25.69;57.41;101968.31;6114780;19;20094;-74
2023/06/25 06:12:48;;;;;;;25.15;14.88;;;;;;;25.71;56.91;101973.56;6112275;19;20370;-71
2023/06/25 06:14:55;;;;;;;23.65;13.77;;;;;;;25.83;56.49;101973.34;6113275;19;20063;-73
2023/06/25 06:17:02;;;;;;;28.83;14.18;;;;;;;26.08;56.62;101975.75;6111480;19;20035;-72
2023/06/25 06:19:07;;;;;;;22.92;13.25;;;;;;;25.86;56.09;101966.00;6113401;19;20002;-72
2023/06/25 06:21:12;;;;;;;22.83;13.55;;;;;;;26.17;55.20;101966.84;6113047;19;20011;-72
2023/06/25 06:23:18;;;;;;;22.20;12.73;;;;;;;26.24;54.60;101970.72;6112638;19;20496;-72
2023/06/25 06:25:23;;;;;;;22.60;12.85;;;;;;;26.43;53.47;101957.28;6112509;19;20475;-71
2023/06/25 06:27:32;;;;;;;20.83;12.80;;;;;;;26.34;53.71;101957.28;6114341;19;20029;-75
2023/06/25 06:29:38;;;;;;;22.92;12.82;;;;;;;26.45;53.44;101958.00;6113987;19;20479;-75
2023/06/25 06:31:43;;;;;;;23.08;12.10;;;;;;;26.77;53.04;101954.22;6111875;19;20470;-74
2023/06/25 06:33:49;;;;;;;21.42;12.80;;;;;;;26.83;51.90;101958.22;6113431;19;20006;-74
2023/06/25 06:35:54;;;;;;;24.17;12.57;;;;;;;27.01;50.98;101953.81;6110302;19;20478;-73
2023/06/25 06:37:59;;;;;;;22.83;11.98;;;;;;;26.99;51.46;101953.13;6110449;19;20041;-73
2023/06/25 06:40:05;;;;;;;22.00;11.48;;;;;;;27.29;49.86;101960.22;6110041;19;20007;-72
2023/06/25 06:42:10;;;;;;;22.30;12.27;;;;;;;27.28;49.52;101955.81;6111695;19;20019;-72
2023/06/25 06:44:20;;;;;;;22.60;11.48;;;;;;;27.36;49.53;101955.94;6112378;19;20477;-72
2023/06/25 06:46:25;;;;;;;20.42;10.98;;;;;;;27.33;49.59;101958.94;6111121;19;20010;-74
2023/06/25 06:48:32;;;;;;;19.65;11.32;;;;;;;27.62;49.01;101946.34;6111603;19;20054;-74
2023/06/25 06:50:39;;;;;;;18.10;9.93;;;;;;;28.11;48.23;101947.03;6112039;19;20051;-74
2023/06/25 06:52:48;;;;;;;19.27;10.10;;;;;;;28.54;46.36;101954.50;6110247;19;20028;-74
2023/06/25 06:54:55;;;;;;;17.80;8.63;;;;;;;28.55;45.53;101955.34;6113259;19;20538;-72
2023/06/25 06:57:03;;;;;;;16.63;9.10;;;;;;;28.38;43.38;101949.72;6112024;19;20042;-72
2023/06/25 06:59:08;;;;;;;15.25;7.90;;;;;;;28.48;43.06;101943.44;6111615;19;20374;-71
2023/06/25 07:01:18;;;;;;;16.25;8.35;;;;;;;28.38;42.71;101957.81;6110500;19;20017;-72
2023/06/25 07:03:23;;;;;;;17.00;8.80;;;;;;;27.99;42.73;101949.94;6112272;19;20356;-72
2023/06/25 07:05:28;;;;;;;16.75;9.02;;;;;;;28.33;43.33;101948.47;6113484;19;20030;-75
2023/06/25 07:07:33;;;;;;;17.13;8.80;;;;;;;28.81;42.67;101940.06;6098180;19;20043;-74
2023/06/25 07:09:39;;;;;;;17.25;8.48;;;;;;;29.27;41.86;101934.53;6111557;19;20087;-74
2023/06/25 07:11:48;;;;;;;16.75;8.45;;;;;;;29.13;42.04;101943.22;6112568;19;20002;-74
2023/06/25 07:13:54;;;;;;;15.80;8.85;;;;;;;28.85;41.66;101936.00;6112539;19;20007;-75
2023/06/25 07:15:59;;;;;;;15.27;7.47;;;;;;;29.29;41.64;101933.38;6108602;19;20018;-73
2023/06/25 07:18:07;;;;;;;14.23;7.65;;;;;;;29.52;40.73;101936.41;6110344;19;20085;-74
2023/06/25 07:20:22;;;;;;;12.93;6.75;;;;;;;29.44;39.95;101938.22;6113156;19;20066;-74
2023/06/25 07:22:32;;;;;;;14.70;7.60;;;;;;;29.05;39.31;101941.31;6112717;19;20479;-73
2023/06/25 07:24:38;;;;;;;15.98;8.18;;;;;;;29.37;38.49;101938.00;6112245;19;20455;-75
2023/06/25 07:26:46;;;;;;;14.43;7.22;;;;;;;29.17;38.93;101940.03;6112793;19;20038;-73
2023/06/25 07:28:51;;;;;;;11.75;6.72;;;;;;;29.53;38.72;101939.94;6110043;19;20365;-74
2023/06/25 07:30:56;;;;;;;16.38;7.63;;;;;;;29.47;39.08;101930.59;6111527;19;20031;-75
2023/06/25 07:33:08;;;;;;;13.75;7.25;;;;;;;29.38;38.22;101936.13;6112948;19;20111;-74
2023/06/25 07:35:16;;;;;;;13.18;7.38;;;;;;;29.75;37.30;101938.56;6113653;19;20353;-75
2023/06/25 07:37:23;;;;;;;13.80;7.10;;;;;;;30.02;38.29;101942.94;6112860;19;20475;-73
2023/06/25 07:39:30;;;;;;;12.55;6.70;;;;;;;29.88;37.34;101940.84;6113542;19;20018;-75
2023/06/25 07:41:35;;;;;;;12.60;6.43;;;;;;;29.63;36.19;101937.13;6113384;19;20055;-75
2023/06/25 07:43:41;;;;;;;12.43;6.22;;;;;;;30.18;36.65;101939.44;6114534;19;20011;-75
2023/06/25 07:45:49;;;;;;;12.27;6.22;;;;;;;30.03;36.68;101932.94;6110666;19;20046;-71
2023/06/25 07:48:00;;;;;;;11.18;6.25;;;;;;;30.09;35.96;101930.41;6113778;19;20017;-74
2023/06/25 07:50:09;;;;;;;12.75;6.82;;;;;;;30.05;35.67;101929.06;6111137;19;20063;-74
2023/06/25 07:52:16;;;;;;;11.38;6.38;;;;;;;29.88;35.83;101932.72;6114439;19;20372;-73
2023/06/25 07:54:21;;;;;;;13.07;6.40;;;;;;;30.29;36.16;101930.19;6110122;19;20014;-75
2023/06/25 07:56:29;;;;;;;10.48;5.88;;;;;;;30.55;36.87;101927.38;6112661;19;20065;-74
2023/06/25 07:58:38;;;;;;;10.25;5.70;;;;;;;31.04;34.84;101920.13;6112268;19;20466;-75
2023/06/25 08:00:49;;;;;;;12.18;6.38;;;;;;;31.10;34.81;101925.88;6113648;19;20027;-76
2023/06/25 08:02:56;;;;;;;9.27;5.13;;;;;;;31.19;34.41;101927.56;6111119;19;20024;-71
2023/06/25 08:05:03;;;;;;;8.85;4.88;;;;;;;31.30;34.32;101913.63;6112031;19;20007;-75
2023/06/25 08:07:11;;;;;;;10.57;4.72;;;;;;;31.45;33.78;101922.78;6109907;19;20054;-71
2023/06/25 08:09:17;;;;;;;9.32;5.03;;;;;;;31.35;32.15;101922.09;6110986;19;20014;-71
2023/06/25 08:11:23;;;;;;;9.07;4.88;;;;;;;31.58;32.36;101918.69;6113285;19;20496;-75
2023/06/25 08:13:33;;;;;;;8.73;4.68;;;;;;;31.37;31.75;101920.09;6111276;19;20471;-76
2023/06/25 08:15:41;;;;;;;9.05;4.45;;;;;;;31.80;30.74;101907.06;6111910;19;20050;-72
2023/06/25 08:17:47;;;;;;;7.90;4.63;;;;;;;31.32;32.83;101914.31;6112070;19;20009;-74
2023/06/25 08:19:52;;;;;;;9.05;4.50;;;;;;;31.02;32.23;101907.75;6112932;19;20018;-77
2023/06/25 08:22:00;;;;;;;9.18;4.75;;;;;;;31.79;30.82;101908.09;6108868;19;20036;-76
2023/06/25 08:24:08;;;;;;;8.70;4.38;;;;;;;31.63;30.81;101902.72;6112593;19;20019;-76
2023/06/25 08:26:15;;;;;;;8.85;5.00;;;;;;;31.54;30.35;101896.44;6112402;19;20014;-75
2023/06/25 08:28:21;;;;;;;9.40;4.30;;;;;;;31.62;30.06;101898.28;6113287;19;20015;-79
2023/06/25 08:30:29;;;;;;;8.32;4.22;;;;;;;31.83;30.83;101895.81;6113271;19;20023;-77
2023/06/25 08:32:34;;;;;;;8.52;4.03;;;;;;;31.88;32.13;101895.31;6110738;19;20009;-76
2023/06/25 08:34:39;;;;;;;8.15;4.28;;;;;;;31.69;30.08;101899.28;6111874;19;20497;-78
2023/06/25 08:36:48;;;;;;;8.77;4.20;;;;;;;32.18;30.06;101899.09;6113716;19;20459;-78
2023/06/25 08:38:54;;;;;;;6.78;3.70;;;;;;;32.52;29.31;101898.72;6110675;19;20503;-79
2023/06/25 08:41:02;;;;;;;7.18;4.03;;;;;;;32.10;27.70;101891.84;6112305;19;20014;-77
2023/06/25 08:43:08;;;;;;;8.10;4.18;;;;;;;31.81;28.41;101891.59;6114310;19;20023;-73
2023/06/25 08:45:14;;;;;;;7.72;4.13;;;;;;;31.34;28.60;101885.13;6116552;19;20025;-72
2023/06/25 08:47:22;;;;;;;7.78;4.05;;;;;;;31.90;28.64;101885.94;6116464;19;20506;-78
2023/06/25 08:49:34;;;;;;;7.40;3.67;;;;;;;32.07;28.37;101884.03;6117035;19;20021;-78
2023/06/25 08:51:39;;;;;;;8.02;3.70;;;;;;;32.60;28.04;101883.34;6117378;19;20087;-78
2023/06/25 08:53:47;;;;;;;7.93;3.72;;;;;;;32.25;26.38;101875.56;6114451;19;20010;-79
2023/06/25 08:55:56;;;;;;;7.68;3.55;;;;;;;31.77;27.47;101882.09;6114935;19;20065;-71
2023/06/25 08:58:07;;;;;;;7.40;3.67;;;;;;;32.16;26.77;101876.66;6107922;19;20047;-76
2023/06/25 09:00:16;;;;;;;6.43;3.53;;;;;;;32.26;27.78;101874.56;6113995;19;20046;-75
2023/06/25 09:02:22;;;;;;;8.15;3.58;;;;;;;32.58;26.42;101876.22;6115623;19;20018;-71
2023/06/25 09:04:30;;;;;;;6.90;3.60;;;;;;;32.70;28.30;101871.22;6115495;19;20018;-74
2023/06/25 09:06:40;;;;;;;6.60;3.45;;;;;;;33.20;26.66;101863.41;6116161;19;20010;-75
2023/06/25 09:08:49;;;;;;;6.47;3.78;;;;;;;33.05;26.45;101870.75;6115399;19;20032;-73
2023/06/25 09:10:55;;;;;;;7.18;3.30;;;;;;;33.60;26.49;101864.88;6114131;19;20018;-75
2023/06/25 09:13:04;;;;;;;7.38;3.20;;;;;;;33.99;25.26;101874.56;6116410;19;20032;-74
2023/06/25 09:15:14;;;;;;;5.90;3.03;;;;;;;33.51;26.08;101871.41;6114908;19;20053;-71
2023/06/25 09:17:25;;;;;;;7.60;3.40;;;;;;;33.54;25.73;101872.94;6114786;19;20014;-72
2023/06/25 09:19:33;;;;;;;7.18;3.45;;;;;;;33.76;24.93;101873.88;6113933;19;20010;-75
2023/06/25 09:21:40;;;;;;;7.90;3.72;;;;;;;33.13;25.96;101863.34;6112253;19;20457;-75
2023/06/25 09:23:53;;;;;;;7.60;3.88;;;;;;;33.43;26.13;101864.16;6114326;19;20007;-73
2023/06/25 09:25:59;;;;;;;7.75;3.70;;;;;;;33.48;24.71;101860.06;6112243;19;20015;-72
2023/06/25 09:28:08;;;;;;;7.53;3.70;;;;;;;34.08;25.06;101865.25;6112286;19;20078;-71
2023/06/25 09:30:18;;;;;;;6.28;3.47;;;;;;;33.62;24.42;101857.31;6112781;19;20010;-73
2023/06/25 09:32:26;;;;;;;6.82;3.60;;;;;;;33.94;26.08;101860.69;6114875;19;20017;-72
2023/06/25 09:34:32;;;;;;;6.93;3.33;;;;;;;33.18;26.73;101858.16;6112997;19;20018;-72
2023/06/25 09:36:38;;;;;;;7.38;3.90;;;;;;;33.40;26.85;101864.56;6113666;19;20010;-73
2023/06/25 09:38:47;;;;;;;6.50;3.90;;;;;;;33.57;26.36;101859.81;6114623;19;20017;-75